Buoy 32974

sailwx.info

Track history (hours):
 
Tides and Currents Weather Stations Pressure Air Temp Water Temp Dewpoint Dewpoint Depression Visibility Wind Speed Wind Dir Waves Ship Positions

Drifting buoy 32974

Last reported at 2018-Jul-16 09:00 UTC. Time now 2018-Jul-16 10:02 UTC.
Position N 16°40' E 164°43'.

Water temperature 28.7 ° C

Date/timePositionNaut miles runAvg speedWind from/ knotsBaromVisibWave heightAir tempDewpointWater temp
2018-Jul-16 09:00N 16°40' E 164°43'1 0.8 28.7
2018-Jul-16 08:00N 16°40' E 164°44'1 1.1 28.7
2018-Jul-16 07:00N 16°40' E 164°45'1 0.6 28.7
2018-Jul-16 06:00N 16°40' E 164°46'1 1.3 28.8
2018-Jul-16 05:00N 16°41' E 164°47'0 0.0 28.8
2018-Jul-16 04:00N 16°41' E 164°47'7 1.5 28.8
2018-Jul-15 23:00N 16°43' E 164°54'1 1.3 28.6
2018-Jul-15 22:00N 16°44' E 164°55'1 1.3 28.6
2018-Jul-15 21:00N 16°44' E 164°56'1 0.6 28.5
2018-Jul-15 20:00N 16°45' E 164°56'2 1.8 28.5
2018-Jul-15 19:00N 16°46' E 164°58'0 0.0 28.5
2018-Jul-15 18:00N 16°46' E 164°58'1 0.8 28.5
2018-Jul-15 17:00N 16°46' E 164°59'0 0.0 28.5
2018-Jul-15 16:00N 16°46' E 164°59'5 0.9 28.5
2018-Jul-15 11:00N 16°47' E 165°04'2 1.7 28.5
2018-Jul-15 10:00N 16°47' E 165°05'1 0.8 28.5
2018-Jul-15 09:00N 16°47' E 165°06'0 0.0 28.5
2018-Jul-15 08:00N 16°47' E 165°06'2 1.7 28.5
2018-Jul-15 07:00N 16°47' E 165°08'1 1.1 28.6
2018-Jul-15 06:00N 16°47' E 165°09'0 0.0 28.6
2018-Jul-15 05:00N 16°47' E 165°09'0 0.0 28.7
2018-Jul-15 04:00N 16°47' E 165°09'5 1.1 28.6
2018-Jul-14 23:00N 16°46' E 165°14'1 1.1 28.6
2018-Jul-14 22:00N 16°46' E 165°16'1 1.3 28.6
2018-Jul-14 21:00N 16°46' E 165°17'0 0.0 28.6
2018-Jul-14 20:00N 16°46' E 165°17'2 0.9 28.6
2018-Jul-14 18:00N 16°46' E 165°19'6 6.3 28.6
2018-Jul-14 17:00N 16°46' E 165°25'1 0.1 28.6
2018-Jul-14 09:00N 16°46' E 165°26'1 0.6 28.7
2018-Jul-14 08:00N 16°46' E 165°26'0 0.0 28.7
2018-Jul-14 07:00N 16°46' E 165°26'1 1.1 28.7
2018-Jul-14 06:00N 16°46' E 165°28'1 1.3 28.7
2018-Jul-14 05:00N 16°45' E 165°29'0 0.0 28.7
2018-Jul-14 04:00N 16°45' E 165°29'4 4.0 28.7
2018-Jul-14 03:00N 16°45' E 165°33'1 0.3 28.7
2018-Jul-13 23:00N 16°44' E 165°34'1 0.6 28.6
2018-Jul-13 22:00N 16°45' E 165°34'2 1.8 28.6
2018-Jul-13 21:00N 16°44' E 165°36'2 0.9 28.6
2018-Jul-13 19:00N 16°44' E 165°38'0 0.0 28.6
2018-Jul-13 18:00N 16°44' E 165°38'0 0.0 28.6
2018-Jul-13 17:00N 16°44' E 165°38'1 1.1 28.6
2018-Jul-13 16:00N 16°44' E 165°39'4 0.6 28.6
2018-Jul-13 10:00N 16°42' E 165°42'2 2.1 28.6
2018-Jul-13 09:00N 16°41' E 165°44'1 0.6 28.6
2018-Jul-13 08:00N 16°41' E 165°44'3 2.9 28.6
2018-Jul-13 07:00N 16°40' E 165°46'0 0.0 28.7
2018-Jul-13 06:00N 16°40' E 165°46'2 2.1 28.7
2018-Jul-13 05:00N 16°38' E 165°48'2 2.4 28.7
2018-Jul-13 04:00N 16°38' E 165°50'0 0.0 28.8
2018-Jul-13 03:00N 16°38' E 165°50'4 1.0 28.7
2018-Jul-12 23:00N 16°37' E 165°55'1 1.1 28.6
2018-Jul-12 22:00N 16°37' E 165°56'2 1.7 28.6
2018-Jul-12 21:00N 16°37' E 165°58'1 0.6 28.6
2018-Jul-12 20:00N 16°36' E 165°58'2 2.3 28.6
2018-Jul-12 19:00N 16°36' E 166°00'0 0.0 28.6
2018-Jul-12 18:00N 16°36' E 166°00'2 1.7 28.6
2018-Jul-12 17:00N 16°36' E 166°02'5 0.7 28.6
2018-Jul-12 10:00N 16°34' E 166°07'3 1.3 28.7
2018-Jul-12 08:00N 16°33' E 166°09'0 0.0 28.7
2018-Jul-12 07:00N 16°33' E 166°09'1 0.6 28.7
2018-Jul-12 06:00N 16°33' E 166°10'1 0.8 28.7
2018-Jul-12 05:00N 16°32' E 166°10'1 0.8 28.8
2018-Jul-12 04:00N 16°32' E 166°11'3 2.9 28.8
2018-Jul-12 03:00N 16°30' E 166°13'1 0.3 28.8
2018-Jul-11 23:00N 16°29' E 166°14'0 0.0 28.6
2018-Jul-11 22:00N 16°29' E 166°14'3 3.0 28.6
2018-Jul-11 21:00N 16°26' E 166°16'0 0.0 28.6
2018-Jul-11 20:00N 16°26' E 166°16'0 0.0 28.6
2018-Jul-11 19:00N 16°26' E 166°16'1 0.6 28.6
2018-Jul-11 18:00N 16°26' E 166°16'1 1.3 28.6
2018-Jul-11 17:00N 16°25' E 166°17'7 6.7 28.6
2018-Jul-11 16:00N 16°20' E 166°22'1 0.1 28.6
2018-Jul-11 10:00N 16°20' E 166°22'1 0.6 28.7
2018-Jul-11 09:00N 16°20' E 166°23'1 1.3 28.7
2018-Jul-11 08:00N 16°19' E 166°24'1 0.8 28.8
2018-Jul-11 07:00N 16°19' E 166°25'2 2.4 28.8
2018-Jul-11 06:00N 16°18' E 166°27'1 0.8 28.9
2018-Jul-11 05:00N 16°17' E 166°28'3 2.6 28.9
2018-Jul-11 04:00N 16°16' E 166°30'5 4.6 28.9
2018-Jul-11 03:00N 16°17' E 166°35'1 0.2 28.9
2018-Jul-10 23:00N 16°16' E 166°35'1 1.2 28.7
2018-Jul-10 22:00N 16°16' E 166°36'2 0.9 28.7
2018-Jul-10 20:00N 16°16' E 166°38'0 0.0 28.6
2018-Jul-10 19:00N 16°16' E 166°38'1 0.6 28.6
2018-Jul-10 18:00N 16°16' E 166°37'1 0.6 28.6
2018-Jul-10 17:00N 16°15' E 166°37'2 2.4 28.6
2018-Jul-10 16:00N 16°13' E 166°37'0 0.0 28.6
2018-Jul-10 11:00N 16°13' E 166°37'1 0.6 28.7
2018-Jul-10 10:00N 16°12' E 166°37'1 0.6 28.7
2018-Jul-10 09:00N 16°11' E 166°37'1 0.8 28.7
2018-Jul-10 08:00N 16°11' E 166°38'2 1.9 28.7
2018-Jul-10 07:00N 16°09' E 166°38'1 0.8 28.7
2018-Jul-10 06:00N 16°08' E 166°39'0 0.0 28.7
2018-Jul-10 05:00N 16°08' E 166°39'1 1.3 28.7
2018-Jul-10 04:00N 16°07' E 166°40'0 0.0 28.7
2018-Jul-10 03:00N 16°07' E 166°40'5 1.4 28.7
2018-Jul-09 23:00N 16°03' E 166°43'2 2.1 28.6
2018-Jul-09 22:00N 16°01' E 166°44'0 0.0 28.6
2018-Jul-09 21:00N 16°01' E 166°44'2 2.1 28.6
2018-Jul-09 20:00N 16°00' E 166°46'2 1.7 28.6
2018-Jul-09 19:00N 16°00' E 166°48'0 0.0 28.6
2018-Jul-09 18:00N 16°00' E 166°48'1 1.3 28.6
2018-Jul-09 17:00N 15°59' E 166°49'8 1.1 28.6
2018-Jul-09 10:00N 15°57' E 166°57'1 0.6 28.6
2018-Jul-09 09:00N 15°57' E 166°58'0 0.0 28.6
2018-Jul-09 08:00N 15°57' E 166°58'2 2.3 28.7
2018-Jul-09 07:00N 15°57' E 167°00'0 0.0 28.6
2018-Jul-09 06:00N 15°57' E 167°00'2 1.8 28.7
2018-Jul-09 05:00N 15°56' E 167°02'0 0.0 28.7
2018-Jul-09 04:00N 15°56' E 167°02'4 0.7 28.7
2018-Jul-08 22:00N 15°56' E 167°06'1 0.6 28.5
2018-Jul-08 21:00N 15°56' E 167°06'0 0.0 28.5
2018-Jul-08 20:00N 15°56' E 167°06'0 0.0 28.5
2018-Jul-08 19:00N 15°56' E 167°06'3 3.0 28.5
2018-Jul-08 18:00N 15°53' E 167°06'0 0.0 28.5
2018-Jul-08 17:00N 15°53' E 167°06'4 4.3 28.5
2018-Jul-08 16:00N 15°49' E 167°08'0 0.0 28.4
2018-Jul-08 11:00N 15°49' E 167°08'1 0.8 28.5
2018-Jul-08 10:00N 15°49' E 167°09'1 1.3 28.5
2018-Jul-08 09:00N 15°48' E 167°10'0 0.0 28.5
2018-Jul-08 08:00N 15°48' E 167°10'1 0.8 28.5
2018-Jul-08 07:00N 15°47' E 167°11'1 1.2 28.6
2018-Jul-08 06:00N 15°47' E 167°12'2 2.5 28.6
2018-Jul-08 05:00N 15°45' E 167°13'0 0.0 28.6
2018-Jul-08 04:00N 15°45' E 167°13'4 0.9 28.6
2018-Jul-07 23:00N 15°43' E 167°17'1 1.3 28.5
2018-Jul-07 22:00N 15°43' E 167°18'2 1.7 28.5
2018-Jul-07 21:00N 15°41' E 167°19'0 0.0 28.5
2018-Jul-07 20:00N 15°41' E 167°19'1 0.6 28.5
2018-Jul-07 19:00N 15°41' E 167°20'2 2.1 28.5
2018-Jul-07 18:00N 15°40' E 167°22'1 0.8 28.5
2018-Jul-07 17:00N 15°41' E 167°21'0 0.0 28.5
2018-Jul-07 16:00N 15°41' E 167°21'6 6.5 28.5
2018-Jul-07 15:00N 15°40' E 167°28'2 0.3 28.5
2018-Jul-07 10:00N 15°40' E 167°29'0 0.0 28.5
2018-Jul-07 09:00N 15°40' E 167°29'1 0.8 28.5
2018-Jul-07 08:00N 15°40' E 167°30'1 0.8 28.5
2018-Jul-07 07:00N 15°40' E 167°31'3 3.0 28.6
2018-Jul-07 06:00N 15°40' E 167°34'0 0.0 28.6
2018-Jul-07 05:00N 15°40' E 167°34'0 0.0 28.6
2018-Jul-07 04:00N 15°40' E 167°34'4 0.7 28.5
2018-Jul-06 23:00N 15°41' E 167°37'1 0.6 28.4
2018-Jul-06 22:00N 15°41' E 167°38'1 1.3 28.4
2018-Jul-06 21:00N 15°41' E 167°39'0 0.0 28.4
2018-Jul-06 20:00N 15°41' E 167°39'1 0.8 28.3
2018-Jul-06 19:00N 15°41' E 167°38'2 1.7 28.3
2018-Jul-06 18:00N 15°41' E 167°40'1 0.6 28.3
2018-Jul-06 17:00N 15°41' E 167°41'0 0.0 28.3
2018-Jul-06 16:00N 15°41' E 167°41'0 0.0 28.3
2018-Jul-06 15:00N 15°41' E 167°41'0 0.0 28.4
2018-Jul-06 14:00N 15°41' E 167°41'3 0.9 28.4
2018-Jul-06 10:00N 15°39' E 167°44'1 1.3 28.4
2018-Jul-06 09:00N 15°38' E 167°45'   28.5
Track history (hours):
 
Tides and Currents Weather Stations Pressure Air Temp Water Temp Dewpoint Dewpoint Depression Visibility Wind Speed Wind Dir Waves Ship Positions

Drifting buoy 32974

Last reported at 2018-Jul-16 09:00 UTC. Time now 2018-Jul-16 10:02 UTC.
Position N 16°40' E 164°43'.

Water temperature 28.7 ° C

Date/timePositionNaut miles runAvg speedWind from/ knotsBaromVisibWave heightAir tempDewpointWater temp
2018-Jul-16 09:00N 16°40' E 164°43'1 0.8 28.7
2018-Jul-16 08:00N 16°40' E 164°44'1 1.1 28.7
2018-Jul-16 07:00N 16°40' E 164°45'1 0.6 28.7
2018-Jul-16 06:00N 16°40' E 164°46'1 1.3 28.8
2018-Jul-16 05:00N 16°41' E 164°47'0 0.0 28.8
2018-Jul-16 04:00N 16°41' E 164°47'7 1.5 28.8
2018-Jul-15 23:00N 16°43' E 164°54'1 1.3 28.6
2018-Jul-15 22:00N 16°44' E 164°55'1 1.3 28.6
2018-Jul-15 21:00N 16°44' E 164°56'1 0.6 28.5
2018-Jul-15 20:00N 16°45' E 164°56'2 1.8 28.5
2018-Jul-15 19:00N 16°46' E 164°58'0 0.0 28.5
2018-Jul-15 18:00N 16°46' E 164°58'1 0.8 28.5
2018-Jul-15 17:00N 16°46' E 164°59'0 0.0 28.5
2018-Jul-15 16:00N 16°46' E 164°59'5 0.9 28.5
2018-Jul-15 11:00N 16°47' E 165°04'2 1.7 28.5
2018-Jul-15 10:00N 16°47' E 165°05'1 0.8 28.5
2018-Jul-15 09:00N 16°47' E 165°06'0 0.0 28.5
2018-Jul-15 08:00N 16°47' E 165°06'2 1.7 28.5
2018-Jul-15 07:00N 16°47' E 165°08'1 1.1 28.6
2018-Jul-15 06:00N 16°47' E 165°09'0 0.0 28.6
2018-Jul-15 05:00N 16°47' E 165°09'0 0.0 28.7
2018-Jul-15 04:00N 16°47' E 165°09'5 1.1 28.6
2018-Jul-14 23:00N 16°46' E 165°14'1 1.1 28.6
2018-Jul-14 22:00N 16°46' E 165°16'1 1.3 28.6
2018-Jul-14 21:00N 16°46' E 165°17'0 0.0 28.6
2018-Jul-14 20:00N 16°46' E 165°17'2 0.9 28.6
2018-Jul-14 18:00N 16°46' E 165°19'6 6.3 28.6
2018-Jul-14 17:00N 16°46' E 165°25'1 0.1 28.6
2018-Jul-14 09:00N 16°46' E 165°26'1 0.6 28.7
2018-Jul-14 08:00N 16°46' E 165°26'0 0.0 28.7
2018-Jul-14 07:00N 16°46' E 165°26'1 1.1 28.7
2018-Jul-14 06:00N 16°46' E 165°28'1 1.3 28.7
2018-Jul-14 05:00N 16°45' E 165°29'0 0.0 28.7
2018-Jul-14 04:00N 16°45' E 165°29'4 4.0 28.7
2018-Jul-14 03:00N 16°45' E 165°33'1 0.3 28.7
2018-Jul-13 23:00N 16°44' E 165°34'1 0.6 28.6
2018-Jul-13 22:00N 16°45' E 165°34'2 1.8 28.6
2018-Jul-13 21:00N 16°44' E 165°36'2 0.9 28.6
2018-Jul-13 19:00N 16°44' E 165°38'0 0.0 28.6
2018-Jul-13 18:00N 16°44' E 165°38'0 0.0 28.6
2018-Jul-13 17:00N 16°44' E 165°38'1 1.1 28.6
2018-Jul-13 16:00N 16°44' E 165°39'4 0.6 28.6
2018-Jul-13 10:00N 16°42' E 165°42'2 2.1 28.6
2018-Jul-13 09:00N 16°41' E 165°44'1 0.6 28.6
2018-Jul-13 08:00N 16°41' E 165°44'3 2.9 28.6
2018-Jul-13 07:00N 16°40' E 165°46'0 0.0 28.7
2018-Jul-13 06:00N 16°40' E 165°46'2 2.1 28.7
2018-Jul-13 05:00N 16°38' E 165°48'2 2.4 28.7
2018-Jul-13 04:00N 16°38' E 165°50'0 0.0 28.8
2018-Jul-13 03:00N 16°38' E 165°50'4 1.0 28.7
2018-Jul-12 23:00N 16°37' E 165°55'1 1.1 28.6
2018-Jul-12 22:00N 16°37' E 165°56'2 1.7 28.6
2018-Jul-12 21:00N 16°37' E 165°58'1 0.6 28.6
2018-Jul-12 20:00N 16°36' E 165°58'2 2.3 28.6
2018-Jul-12 19:00N 16°36' E 166°00'0 0.0 28.6
2018-Jul-12 18:00N 16°36' E 166°00'2 1.7 28.6
2018-Jul-12 17:00N 16°36' E 166°02'5 0.7 28.6
2018-Jul-12 10:00N 16°34' E 166°07'3 1.3 28.7
2018-Jul-12 08:00N 16°33' E 166°09'0 0.0 28.7
2018-Jul-12 07:00N 16°33' E 166°09'1 0.6 28.7
2018-Jul-12 06:00N 16°33' E 166°10'1 0.8 28.7
2018-Jul-12 05:00N 16°32' E 166°10'1 0.8 28.8
2018-Jul-12 04:00N 16°32' E 166°11'3 2.9 28.8
2018-Jul-12 03:00N 16°30' E 166°13'1 0.3 28.8
2018-Jul-11 23:00N 16°29' E 166°14'0 0.0 28.6
2018-Jul-11 22:00N 16°29' E 166°14'3 3.0 28.6
2018-Jul-11 21:00N 16°26' E 166°16'0 0.0 28.6
2018-Jul-11 20:00N 16°26' E 166°16'0 0.0 28.6
2018-Jul-11 19:00N 16°26' E 166°16'1 0.6 28.6
2018-Jul-11 18:00N 16°26' E 166°16'1 1.3 28.6
2018-Jul-11 17:00N 16°25' E 166°17'7 6.7 28.6
2018-Jul-11 16:00N 16°20' E 166°22'1 0.1 28.6
2018-Jul-11 10:00N 16°20' E 166°22'1 0.6 28.7
2018-Jul-11 09:00N 16°20' E 166°23'1 1.3 28.7
2018-Jul-11 08:00N 16°19' E 166°24'1 0.8 28.8
2018-Jul-11 07:00N 16°19' E 166°25'2 2.4 28.8
2018-Jul-11 06:00N 16°18' E 166°27'1 0.8 28.9
2018-Jul-11 05:00N 16°17' E 166°28'3 2.6 28.9
2018-Jul-11 04:00N 16°16' E 166°30'5 4.6 28.9
2018-Jul-11 03:00N 16°17' E 166°35'1 0.2 28.9
2018-Jul-10 23:00N 16°16' E 166°35'1 1.2 28.7
2018-Jul-10 22:00N 16°16' E 166°36'2 0.9 28.7
2018-Jul-10 20:00N 16°16' E 166°38'0 0.0 28.6
2018-Jul-10 19:00N 16°16' E 166°38'1 0.6 28.6
2018-Jul-10 18:00N 16°16' E 166°37'1 0.6 28.6
2018-Jul-10 17:00N 16°15' E 166°37'2 2.4 28.6
2018-Jul-10 16:00N 16°13' E 166°37'0 0.0 28.6
2018-Jul-10 11:00N 16°13' E 166°37'1 0.6 28.7
2018-Jul-10 10:00N 16°12' E 166°37'1 0.6 28.7
2018-Jul-10 09:00N 16°11' E 166°37'1 0.8 28.7
2018-Jul-10 08:00N 16°11' E 166°38'2 1.9 28.7
2018-Jul-10 07:00N 16°09' E 166°38'1 0.8 28.7
2018-Jul-10 06:00N 16°08' E 166°39'0 0.0 28.7
2018-Jul-10 05:00N 16°08' E 166°39'1 1.3 28.7
2018-Jul-10 04:00N 16°07' E 166°40'0 0.0 28.7
2018-Jul-10 03:00N 16°07' E 166°40'5 1.4 28.7
2018-Jul-09 23:00N 16°03' E 166°43'2 2.1 28.6
2018-Jul-09 22:00N 16°01' E 166°44'0 0.0 28.6
2018-Jul-09 21:00N 16°01' E 166°44'2 2.1 28.6
2018-Jul-09 20:00N 16°00' E 166°46'2 1.7 28.6
2018-Jul-09 19:00N 16°00' E 166°48'0 0.0 28.6
2018-Jul-09 18:00N 16°00' E 166°48'1 1.3 28.6
2018-Jul-09 17:00N 15°59' E 166°49'8 1.1 28.6
2018-Jul-09 10:00N 15°57' E 166°57'1 0.6 28.6
2018-Jul-09 09:00N 15°57' E 166°58'0 0.0 28.6
2018-Jul-09 08:00N 15°57' E 166°58'2 2.3 28.7
2018-Jul-09 07:00N 15°57' E 167°00'0 0.0 28.6
2018-Jul-09 06:00N 15°57' E 167°00'2 1.8 28.7
2018-Jul-09 05:00N 15°56' E 167°02'0 0.0 28.7
2018-Jul-09 04:00N 15°56' E 167°02'4 0.7 28.7
2018-Jul-08 22:00N 15°56' E 167°06'1 0.6 28.5
2018-Jul-08 21:00N 15°56' E 167°06'0 0.0 28.5
2018-Jul-08 20:00N 15°56' E 167°06'0 0.0 28.5
2018-Jul-08 19:00N 15°56' E 167°06'3 3.0 28.5
2018-Jul-08 18:00N 15°53' E 167°06'0 0.0 28.5
2018-Jul-08 17:00N 15°53' E 167°06'4 4.3 28.5
2018-Jul-08 16:00N 15°49' E 167°08'0 0.0 28.4
2018-Jul-08 11:00N 15°49' E 167°08'1 0.8 28.5
2018-Jul-08 10:00N 15°49' E 167°09'1 1.3 28.5
2018-Jul-08 09:00N 15°48' E 167°10'0 0.0 28.5
2018-Jul-08 08:00N 15°48' E 167°10'1 0.8 28.5
2018-Jul-08 07:00N 15°47' E 167°11'1 1.2 28.6
2018-Jul-08 06:00N 15°47' E 167°12'2 2.5 28.6
2018-Jul-08 05:00N 15°45' E 167°13'0 0.0 28.6
2018-Jul-08 04:00N 15°45' E 167°13'4 0.9 28.6
2018-Jul-07 23:00N 15°43' E 167°17'1 1.3 28.5
2018-Jul-07 22:00N 15°43' E 167°18'2 1.7 28.5
2018-Jul-07 21:00N 15°41' E 167°19'0 0.0 28.5
2018-Jul-07 20:00N 15°41' E 167°19'1 0.6 28.5
2018-Jul-07 19:00N 15°41' E 167°20'2 2.1 28.5
2018-Jul-07 18:00N 15°40' E 167°22'1 0.8 28.5
2018-Jul-07 17:00N 15°41' E 167°21'0 0.0 28.5
2018-Jul-07 16:00N 15°41' E 167°21'6 6.5 28.5
2018-Jul-07 15:00N 15°40' E 167°28'2 0.3 28.5
2018-Jul-07 10:00N 15°40' E 167°29'0 0.0 28.5
2018-Jul-07 09:00N 15°40' E 167°29'1 0.8 28.5
2018-Jul-07 08:00N 15°40' E 167°30'1 0.8 28.5
2018-Jul-07 07:00N 15°40' E 167°31'3 3.0 28.6
2018-Jul-07 06:00N 15°40' E 167°34'0 0.0 28.6
2018-Jul-07 05:00N 15°40' E 167°34'0 0.0 28.6
2018-Jul-07 04:00N 15°40' E 167°34'4 0.7 28.5
2018-Jul-06 23:00N 15°41' E 167°37'1 0.6 28.4
2018-Jul-06 22:00N 15°41' E 167°38'1 1.3 28.4
2018-Jul-06 21:00N 15°41' E 167°39'0 0.0 28.4
2018-Jul-06 20:00N 15°41' E 167°39'1 0.8 28.3
2018-Jul-06 19:00N 15°41' E 167°38'2 1.7 28.3
2018-Jul-06 18:00N 15°41' E 167°40'1 0.6 28.3
2018-Jul-06 17:00N 15°41' E 167°41'0 0.0 28.3
2018-Jul-06 16:00N 15°41' E 167°41'0 0.0 28.3
2018-Jul-06 15:00N 15°41' E 167°41'0 0.0 28.4
2018-Jul-06 14:00N 15°41' E 167°41'3 0.9 28.4
2018-Jul-06 10:00N 15°39' E 167°44'1 1.3 28.4
2018-Jul-06 09:00N 15°38' E 167°45'   28.5

Dump ship's entire track history